Time;durP1;ratioP1;P1;durP2;ratioP2;P2;SDS_P1;SDS_P2;PMS_P1;PMS_P2;Temp;Humidity;BMP_temperature;BMP_pressure;BME280_temperature;BME280_humidity;BME280_pressure;Samples;Min_cycle;Max_cycle;Signal;HPM_P1;HPM_P2
2022/07/19 00:01:53;;;;;;;6.70;4.33;;;18.80;99.90;;;;;;4997320;28;20469;-58
2022/07/19 00:04:24;;;;;;;6.90;4.67;;;18.80;99.90;;;;;;4997276;28;20469;-55
2022/07/19 00:06:55;;;;;;;5.63;5.00;;;18.70;99.90;;;;;;4997308;28;20465;-58
2022/07/19 00:09:26;;;;;;;3.87;3.43;;;18.70;99.90;;;;;;4997476;28;20520;-57
2022/07/19 00:11:55;;;;;;;7.33;4.40;;;18.60;99.90;;;;;;4997582;28;20440;-57
2022/07/19 00:14:23;;;;;;;8.37;3.90;;;18.60;99.90;;;;;;4996885;28;20465;-58
2022/07/19 00:16:50;;;;;;;6.33;5.03;;;18.60;99.90;;;;;;4997105;28;20468;-58
2022/07/19 00:19:17;;;;;;;5.80;3.90;;;18.50;99.90;;;;;;4997440;28;20498;-57
2022/07/19 00:21:47;;;;;;;9.63;4.03;;;18.30;99.90;;;;;;4997145;28;20469;-57
2022/07/19 00:24:16;;;;;;;5.00;4.40;;;18.30;99.90;;;;;;4999188;28;20468;-59
2022/07/19 00:26:43;;;;;;;5.50;4.47;;;18.30;99.90;;;;;;5000346;28;20516;-58
2022/07/19 00:29:10;;;;;;;5.20;4.10;;;18.30;99.90;;;;;;4999951;28;20538;-59
2022/07/19 00:31:38;;;;;;;7.53;4.60;;;18.30;99.90;;;;;;5000016;28;20810;-59
2022/07/19 00:34:05;;;;;;;4.77;3.97;;;18.20;99.90;;;;;;5000801;28;20483;-59
2022/07/19 00:36:35;;;;;;;4.40;4.00;;;18.20;99.90;;;;;;5000307;28;20951;-57
2022/07/19 00:39:04;;;;;;;6.23;4.60;;;18.20;99.90;;;;;;4999638;28;20497;-55
2022/07/19 00:41:42;;;;;;;5.47;4.53;;;18.20;99.90;;;;;;5000288;28;20443;-56
2022/07/19 00:44:12;;;;;;;6.83;4.83;;;18.30;99.90;;;;;;5000117;28;20528;-59
2022/07/19 00:46:43;;;;;;;4.80;3.90;;;18.20;99.90;;;;;;5000184;28;20788;-55
2022/07/19 00:49:10;;;;;;;5.17;4.67;;;18.10;99.90;;;;;;4999699;28;21069;-58
2022/07/19 00:51:41;;;;;;;7.23;4.27;;;18.10;99.90;;;;;;5000260;28;20488;-59
2022/07/19 00:54:15;;;;;;;6.43;4.40;;;18.10;99.90;;;;;;5000190;28;20435;-58
2022/07/19 00:56:44;;;;;;;5.23;4.73;;;18.00;99.90;;;;;;4999874;28;20473;-58
2022/07/19 00:59:13;;;;;;;7.30;4.57;;;17.90;99.90;;;;;;5000031;28;20592;-59
2022/07/19 01:01:40;;;;;;;5.10;3.73;;;17.80;99.90;;;;;;5000380;28;20464;-58
2022/07/19 01:04:09;;;;;;;6.20;4.53;;;17.80;99.90;;;;;;5000220;28;20460;-58
2022/07/19 01:06:36;;;;;;;5.80;4.70;;;17.80;99.90;;;;;;4999582;28;20443;-57
2022/07/19 01:09:06;;;;;;;5.27;4.77;;;17.80;99.90;;;;;;4999858;28;20560;-59
2022/07/19 01:11:35;;;;;;;5.13;4.53;;;17.70;99.90;;;;;;4999422;28;20972;-59
2022/07/19 01:14:02;;;;;;;5.53;4.67;;;17.70;99.90;;;;;;4999811;28;20440;-59
2022/07/19 01:16:32;;;;;;;6.27;4.90;;;17.70;99.90;;;;;;4999388;28;20504;-59
2022/07/19 01:18:59;;;;;;;4.67;4.17;;;17.70;99.90;;;;;;4999852;28;20539;-57
2022/07/19 01:21:28;;;;;;;7.33;5.50;;;17.70;99.90;;;;;;4999575;28;20465;-59
2022/07/19 01:23:56;;;;;;;5.20;4.80;;;17.60;99.90;;;;;;4999731;28;20475;-59
2022/07/19 01:26:23;;;;;;;7.00;4.43;;;17.60;99.90;;;;;;4998705;28;20506;-59
2022/07/19 01:28:51;;;;;;;5.20;4.80;;;17.60;99.90;;;;;;4999468;28;20461;-59
2022/07/19 01:31:21;;;;;;;5.67;4.63;;;17.50;99.90;;;;;;4999389;28;20464;-59
2022/07/19 01:33:48;;;;;;;7.70;4.77;;;17.50;99.90;;;;;;4999214;28;20446;-59
2022/07/19 01:36:15;;;;;;;6.07;4.57;;;17.40;99.90;;;;;;4997748;28;20559;-58
2022/07/19 01:38:49;;;;;;;7.13;4.70;;;17.40;99.90;;;;;;4998905;28;20493;-58
2022/07/19 01:41:16;;;;;;;6.60;4.07;;;17.40;99.90;;;;;;4999444;28;20542;-59
2022/07/19 01:43:44;;;;;;;6.83;4.80;;;17.30;99.90;;;;;;4999224;28;20547;-53
2022/07/19 01:46:15;;;;;;;4.83;4.37;;;17.30;99.90;;;;;;4998733;28;20467;-59
2022/07/19 01:48:44;;;;;;;5.77;4.67;;;17.30;99.90;;;;;;4998265;28;20467;-58
2022/07/19 01:51:11;;;;;;;6.67;5.70;;;17.30;99.90;;;;;;4999090;28;20465;-58
2022/07/19 01:53:38;;;;;;;7.60;5.50;;;17.20;99.90;;;;;;4999278;28;20479;-58
2022/07/19 01:56:08;;;;;;;8.27;5.20;;;17.20;99.90;;;;;;4998973;28;20868;-58
2022/07/19 01:58:38;;;;;;;6.70;4.97;;;17.20;99.90;;;;;;4998363;28;20474;-59
2022/07/19 02:01:06;;;;;;;4.93;4.50;;;17.20;99.90;;;;;;4998998;28;20443;-59
2022/07/19 02:03:33;;;;;;;5.23;4.57;;;17.10;99.90;;;;;;4998848;28;20577;-57
2022/07/19 02:06:01;;;;;;;6.20;4.70;;;17.20;99.90;;;;;;4998704;28;20935;-56
2022/07/19 02:08:33;;;;;;;6.40;5.80;;;17.10;99.90;;;;;;4998064;28;20458;-57
2022/07/19 02:11:34;;;;;;;6.03;4.73;;;17.10;99.90;;;;;;4997100;28;20440;-58
2022/07/19 02:13:51;;;;;;;6.30;4.90;;;17.10;99.90;;;;;;4998497;28;20457;-59
2022/07/19 02:16:18;;;;;;;5.50;4.70;;;17.00;99.90;;;;;;4998545;28;20439;-58
2022/07/19 02:18:46;;;;;;;4.90;4.40;;;16.90;99.90;;;;;;4998225;28;20492;-56
2022/07/19 02:21:15;;;;;;;4.37;3.97;;;16.90;99.90;;;;;;4998422;28;20472;-55
2022/07/19 02:23:42;;;;;;;5.00;4.50;;;16.80;99.90;;;;;;4998706;28;20443;-58
2022/07/19 02:26:09;;;;;;;13.93;5.33;;;16.80;99.90;;;;;;4998326;28;20747;-56
2022/07/19 02:28:40;;;;;;;5.77;4.50;;;16.90;99.90;;;;;;4998160;28;20435;-57
2022/07/19 02:31:12;;;;;;;5.33;4.90;;;16.80;99.90;;;;;;4998304;28;20472;-58
2022/07/19 02:33:40;;;;;;;5.10;4.27;;;16.80;99.90;;;;;;4998376;28;20471;-58
2022/07/19 02:36:07;;;;;;;5.80;4.40;;;16.70;99.90;;;;;;4998665;28;20882;-58
2022/07/19 02:38:35;;;;;;;5.57;5.07;;;16.70;99.90;;;;;;4997807;28;20544;-59
2022/07/19 02:41:07;;;;;;;5.93;5.43;;;16.70;99.90;;;;;;4998465;28;20544;-56
2022/07/19 02:43:34;;;;;;;8.47;5.30;;;16.70;99.90;;;;;;4998085;28;20882;-57
2022/07/19 02:46:02;;;;;;;8.47;5.00;;;16.70;99.90;;;;;;4998047;28;20467;-57
2022/07/19 02:48:33;;;;;;;10.03;5.57;;;16.70;99.90;;;;;;4997916;28;20492;-58
2022/07/19 02:51:00;;;;;;;9.60;5.20;;;16.60;99.90;;;;;;4998221;28;20921;-59
2022/07/19 02:53:28;;;;;;;6.17;5.17;;;16.60;99.90;;;;;;4998118;28;21008;-59
2022/07/19 02:55:55;;;;;;;5.73;5.20;;;16.50;99.90;;;;;;4997954;28;20772;-59
2022/07/19 02:58:28;;;;;;;6.47;4.83;;;16.50;99.90;;;;;;4997354;28;20567;-56
2022/07/19 03:00:57;;;;;;;6.60;5.30;;;16.40;99.90;;;;;;4997824;28;20465;-59
2022/07/19 03:03:45;;;;;;;5.33;4.80;;;16.30;99.90;;;;;;4997694;28;20829;-58
2022/07/19 03:06:16;;;;;;;5.20;4.70;;;16.40;99.90;;;;;;4997623;28;20902;-57
2022/07/19 03:08:44;;;;;;;7.97;5.20;;;16.30;99.90;;;;;;4997695;28;20465;-56
2022/07/19 03:11:14;;;;;;;8.60;5.00;;;16.40;99.90;;;;;;4997805;28;20496;-59
2022/07/19 03:13:42;;;;;;;6.10;4.87;;;16.40;99.90;;;;;;4997657;28;20563;-59
2022/07/19 03:16:09;;;;;;;6.00;5.30;;;16.40;99.90;;;;;;4997405;28;20884;-58
2022/07/19 03:18:37;;;;;;;6.33;5.73;;;16.40;99.90;;;;;;4997371;28;20494;-57
2022/07/19 03:21:07;;;;;;;6.87;5.80;;;16.40;99.90;;;;;;4997495;28;20529;-56
2022/07/19 03:23:37;;;;;;;6.33;5.73;;;16.40;99.90;;;;;;4997505;28;20534;-59
2022/07/19 03:26:07;;;;;;;5.20;4.63;;;16.40;99.90;;;;;;4997769;28;20450;-59
2022/07/19 03:28:40;;;;;;;5.10;4.60;;;16.40;99.90;;;;;;4997459;28;20465;-59
2022/07/19 03:31:10;;;;;;;6.13;5.53;;;16.30;99.90;;;;;;4996789;28;20465;-58
2022/07/19 03:33:37;;;;;;;5.90;5.40;;;16.30;99.90;;;;;;4997851;28;20469;-59
2022/07/19 03:36:05;;;;;;;12.93;6.10;;;16.30;99.90;;;;;;4997896;28;20476;-58
2022/07/19 03:38:34;;;;;;;5.70;4.93;;;16.30;99.90;;;;;;4996962;28;20469;-58
2022/07/19 03:41:06;;;;;;;5.23;4.73;;;16.30;99.90;;;;;;4997303;28;20442;-58
2022/07/19 03:43:33;;;;;;;5.60;5.00;;;16.20;99.90;;;;;;4997218;28;20879;-58
2022/07/19 03:46:02;;;;;;;6.13;4.63;;;16.20;99.90;;;;;;4997448;28;20534;-59
2022/07/19 03:48:29;;;;;;;6.23;5.07;;;16.10;99.90;;;;;;4996958;28;20821;-57
2022/07/19 03:50:57;;;;;;;5.50;4.87;;;16.20;99.90;;;;;;4997495;28;20951;-56
2022/07/19 03:53:24;;;;;;;6.50;5.90;;;16.20;99.90;;;;;;4997617;28;20563;-59
2022/07/19 03:55:54;;;;;;;5.50;5.10;;;16.30;99.90;;;;;;4997198;28;20465;-57
2022/07/19 03:58:24;;;;;;;6.10;5.60;;;16.30;99.90;;;;;;4997566;28;20451;-57
2022/07/19 04:00:54;;;;;;;7.87;6.23;;;16.30;99.90;;;;;;5000752;28;20933;-59
2022/07/19 04:03:22;;;;;;;5.70;4.80;;;16.30;99.90;;;;;;5001255;28;20567;-58
2022/07/19 04:05:49;;;;;;;5.70;5.20;;;16.30;99.90;;;;;;5001139;28;20952;-59
2022/07/19 04:08:16;;;;;;;8.03;5.27;;;16.30;99.90;;;;;;5000486;28;20555;-55
2022/07/19 04:10:44;;;;;;;8.23;5.33;;;16.30;99.90;;;;;;5000736;28;20842;-54
2022/07/19 04:13:11;;;;;;;7.03;5.60;;;16.40;99.90;;;;;;5000721;28;20447;-59
2022/07/19 04:15:42;;;;;;;5.60;5.10;;;16.30;99.90;;;;;;4999953;28;20464;-58
2022/07/19 04:18:11;;;;;;;6.20;5.60;;;16.40;99.90;;;;;;5000587;28;20492;-56
2022/07/19 04:20:40;;;;;;;8.73;5.40;;;16.40;99.90;;;;;;5000426;28;20468;-58
2022/07/19 04:23:08;;;;;;;8.23;5.37;;;16.50;99.90;;;;;;5000764;28;20573;-58
2022/07/19 04:25:35;;;;;;;6.17;5.57;;;16.60;99.90;;;;;;5000374;28;20443;-58
2022/07/19 04:28:05;;;;;;;6.60;5.77;;;16.60;99.90;;;;;;5001076;28;20539;-58
2022/07/19 04:30:40;;;;;;;5.90;4.70;;;16.60;99.90;;;;;;5000180;28;20925;-59
2022/07/19 04:33:07;;;;;;;5.47;4.97;;;16.50;99.90;;;;;;5000656;28;20443;-58
2022/07/19 04:35:37;;;;;;;8.80;5.47;;;16.50;99.90;;;;;;5000338;28;20867;-58
2022/07/19 04:38:04;;;;;;;6.10;5.50;;;16.50;99.90;;;;;;5000524;28;20881;-57
2022/07/19 04:40:31;;;;;;;5.70;5.20;;;16.60;99.90;;;;;;5000295;28;20591;-57
2022/07/19 04:42:59;;;;;;;6.60;5.70;;;16.50;99.90;;;;;;5000246;28;20743;-56
2022/07/19 04:45:27;;;;;;;11.73;5.67;;;16.60;99.90;;;;;;4999951;28;20583;-55
2022/07/19 04:47:56;;;;;;;7.03;5.63;;;16.80;99.90;;;;;;5000243;28;20525;-58
2022/07/19 04:50:25;;;;;;;5.70;4.93;;;16.90;99.90;;;;;;4999708;28;20583;-58
2022/07/19 04:52:52;;;;;;;8.10;5.50;;;16.90;99.90;;;;;;4999864;28;20559;-56
2022/07/19 04:55:20;;;;;;;10.20;5.20;;;17.10;99.90;;;;;;4999236;28;20547;-59
2022/07/19 04:57:47;;;;;;;7.80;5.87;;;17.20;99.90;;;;;;4999148;28;20705;-56
2022/07/19 05:00:15;;;;;;;6.00;5.50;;;17.30;99.90;;;;;;4998130;28;20501;-54
2022/07/19 05:02:45;;;;;;;7.30;6.10;;;17.30;99.90;;;;;;4999530;28;20876;-57
2022/07/19 05:05:14;;;;;;;10.00;5.30;;;17.40;99.90;;;;;;4999655;28;20479;-57
2022/07/19 05:07:41;;;;;;;7.40;6.07;;;17.40;99.90;;;;;;4999275;28;20836;-58
2022/07/19 05:10:11;;;;;;;6.57;5.90;;;17.50;99.90;;;;;;4999548;28;20465;-59
2022/07/19 05:12:38;;;;;;;8.70;6.00;;;17.70;99.90;;;;;;4999347;28;20928;-59
2022/07/19 05:15:09;;;;;;;7.07;5.53;;;17.80;99.90;;;;;;4999116;28;20539;-59
2022/07/19 05:17:36;;;;;;;8.07;5.93;;;17.90;99.90;;;;;;4999280;28;20446;-59
2022/07/19 05:20:05;;;;;;;7.27;5.63;;;17.90;99.90;;;;;;4999592;28;20597;-59
2022/07/19 05:22:33;;;;;;;6.50;5.90;;;18.00;99.90;;;;;;4999042;28;20472;-59
2022/07/19 05:25:01;;;;;;;8.13;5.77;;;18.10;99.90;;;;;;4999100;28;20444;-58
2022/07/19 05:27:28;;;;;;;7.33;5.93;;;18.20;99.90;;;;;;4998565;28;20480;-59
2022/07/19 05:29:55;;;;;;;6.07;5.20;;;18.30;99.90;;;;;;4999667;28;20445;-59
2022/07/19 05:32:23;;;;;;;7.50;5.73;;;18.50;99.90;;;;;;4999150;28;20913;-58
2022/07/19 05:34:58;;;;;;;5.13;4.63;;;18.70;99.90;;;;;;5010726;28;20460;-58
2022/07/19 05:37:26;;;;;;;4.63;4.23;;;18.80;99.90;;;;;;5018599;28;20510;-58
2022/07/19 05:39:56;;;;;;;7.00;4.47;;;19.00;99.90;;;;;;5018413;28;20562;-58
2022/07/19 05:42:23;;;;;;;13.93;5.97;;;19.20;99.90;;;;;;5018724;28;20759;-57
2022/07/19 05:44:51;;;;;;;9.57;4.53;;;19.30;99.90;;;;;;5018626;28;20472;-53
2022/07/19 05:47:18;;;;;;;6.57;5.13;;;19.50;99.90;;;;;;5018474;28;20526;-59
2022/07/19 05:49:45;;;;;;;5.57;3.80;;;19.70;99.90;;;;;;5017854;28;20494;-59
2022/07/19 05:52:13;;;;;;;8.27;4.53;;;19.90;99.90;;;;;;5018085;28;20554;-58
2022/07/19 05:54:42;;;;;;;7.80;4.83;;;20.20;99.90;;;;;;5000464;28;20468;-59
2022/07/19 05:57:18;;;;;;;5.90;4.80;;;20.40;99.90;;;;;;4998611;28;20848;-57
2022/07/19 05:59:46;;;;;;;5.07;4.57;;;20.70;99.90;;;;;;4998566;28;20519;-59
2022/07/19 06:02:14;;;;;;;5.17;4.70;;;21.10;99.90;;;;;;4998447;28;20528;-57
2022/07/19 06:04:43;;;;;;;6.60;4.57;;;21.40;99.90;;;;;;5008754;28;20449;-59
2022/07/19 06:07:12;;;;;;;4.80;3.80;;;21.80;99.90;;;;;;5017750;28;20471;-59
2022/07/19 06:09:40;;;;;;;4.53;3.47;;;22.20;99.90;;;;;;5018426;28;20729;-60
2022/07/19 06:12:07;;;;;;;5.63;5.13;;;22.50;99.90;;;;;;5017514;28;20538;-59
2022/07/19 06:14:36;;;;;;;5.33;4.27;;;22.90;99.90;;;;;;5017758;28;20468;-58
2022/07/19 06:17:04;;;;;;;3.60;3.30;;;23.30;99.90;;;;;;5018090;28;20558;-59
2022/07/19 06:19:34;;;;;;;3.90;3.60;;;23.60;99.90;;;;;;5013288;28;20496;-59
2022/07/19 06:22:01;;;;;;;4.23;3.83;;;24.00;99.90;;;;;;4997671;28;20955;-59
2022/07/19 06:24:31;;;;;;;6.00;3.30;;;24.40;99.90;;;;;;5009141;28;20464;-59
2022/07/19 06:26:59;;;;;;;4.10;3.63;;;24.80;99.90;;;;;;5017493;28;20663;-60
2022/07/19 06:29:33;;;;;;;7.50;4.17;;;25.10;99.90;;;;;;5017216;28;20468;-60
2022/07/19 06:32:05;;;;;;;6.60;3.23;;;25.60;99.90;;;;;;5012723;28;20456;-61
2022/07/19 06:34:40;;;;;;;4.60;4.13;;;26.10;99.90;;;;;;4998008;28;20571;-60
2022/07/19 06:37:07;;;;;;;7.23;4.70;;;26.50;99.90;;;;;;4997915;28;20502;-60
2022/07/19 06:39:34;;;;;;;5.40;4.07;;;26.90;99.90;;;;;;4997827;28;20465;-60
2022/07/19 06:42:04;;;;;;;5.13;3.23;;;27.30;99.90;;;;;;4998079;28;20768;-60
2022/07/19 06:44:31;;;;;;;6.13;3.90;;;27.60;99.90;;;;;;5007513;28;20464;-60
2022/07/19 06:46:59;;;;;;;4.50;3.70;;;27.80;99.90;;;;;;5016883;28;20559;-60
2022/07/19 06:49:28;;;;;;;8.03;4.40;;;28.00;99.90;;;;;;5016844;28;20500;-60
2022/07/19 06:51:55;;;;;;;3.90;3.60;;;28.30;99.90;;;;;;5006940;28;20799;-60
2022/07/19 06:54:25;;;;;;;4.40;4.00;;;28.70;99.90;;;;;;5008101;28;20492;-61
2022/07/19 06:56:59;;;;;;;7.20;3.87;;;28.90;99.90;;;;;;5016864;28;20468;-60
2022/07/19 06:59:29;;;;;;;7.77;3.77;;;29.20;99.90;;;;;;5017216;28;20471;-61
2022/07/19 07:01:59;;;;;;;3.80;3.30;;;29.30;99.90;;;;;;5016643;28;20466;-60
2022/07/19 07:04:28;;;;;;;11.07;4.00;;;29.40;99.90;;;;;;5017408;28;20523;-60
2022/07/19 07:06:55;;;;;;;3.63;2.90;;;29.70;99.90;;;;;;5010133;28;20452;-60
2022/07/19 07:09:23;;;;;;;4.60;3.10;;;29.90;99.90;;;;;;5005909;28;20512;-60
2022/07/19 07:11:56;;;;;;;3.90;3.60;;;30.30;99.90;;;;;;4984522;28;20458;-60
2022/07/19 07:14:24;;;;;;;6.20;4.00;;;30.50;99.90;;;;;;4978476;28;20447;-60
2022/07/19 07:16:51;;;;;;;5.57;3.37;;;30.80;99.90;;;;;;4986192;28;20464;-60
2022/07/19 07:19:18;;;;;;;4.43;3.77;;;30.90;99.90;;;;;;4978081;28;20961;-61
2022/07/19 07:21:48;;;;;;;4.23;3.60;;;31.10;99.90;;;;;;4978136;28;20497;-61
2022/07/19 07:24:17;;;;;;;4.60;3.17;;;31.30;99.90;;;;;;4977722;28;20543;-60
2022/07/19 07:26:47;;;;;;;6.87;3.67;;;31.40;99.90;;;;;;4977907;28;20542;-61
2022/07/19 07:29:17;;;;;;;7.63;3.40;;;31.30;99.90;;;;;;4977650;28;20470;-63
2022/07/19 07:31:44;;;;;;;3.87;3.03;;;31.40;99.90;;;;;;4977171;28;20497;-59
2022/07/19 07:34:12;;;;;;;3.57;3.23;;;31.50;99.90;;;;;;4981776;28;20891;-61
2022/07/19 07:36:39;;;;;;;6.07;3.97;;;31.60;99.90;;;;;;4981391;28;20497;-60
2022/07/19 07:39:07;;;;;;;4.67;3.40;;;31.80;99.90;;;;;;4981852;28;20473;-61
2022/07/19 07:41:35;;;;;;;3.00;2.80;;;32.10;99.90;;;;;;4981465;28;20497;-61
2022/07/19 07:44:02;;;;;;;6.20;3.93;;;32.40;99.90;;;;;;4982220;28;20551;-61
2022/07/19 07:46:29;;;;;;;5.40;3.40;;;32.50;99.90;;;;;;4981253;28;20472;-61
2022/07/19 07:48:56;;;;;;;4.10;3.80;;;32.30;99.90;;;;;;5006632;28;20533;-60
2022/07/19 07:51:24;;;;;;;4.13;3.23;;;32.60;99.90;;;;;;5019309;28;20468;-61
2022/07/19 07:53:53;;;;;;;8.20;4.13;;;32.90;99.90;;;;;;5020124;28;20923;-61
2022/07/19 07:56:22;;;;;;;7.10;3.57;;;33.30;99.90;;;;;;5020227;28;20459;-62
2022/07/19 07:58:49;;;;;;;7.10;3.90;;;33.70;99.90;;;;;;5020403;28;20518;-61
2022/07/19 08:01:17;;;;;;;3.73;3.43;;;33.90;99.90;;;;;;5021023;28;20935;-62
2022/07/19 08:03:45;;;;;;;4.00;3.57;;;34.20;99.90;;;;;;5021017;28;20474;-62
2022/07/19 08:06:12;;;;;;;10.63;3.43;;;34.30;99.90;;;;;;5020618;28;20840;-62
2022/07/19 08:08:40;;;;;;;4.57;3.40;;;34.60;99.90;;;;;;5020798;28;20505;-62
2022/07/19 08:11:11;;;;;;;4.33;3.93;;;34.60;99.90;;;;;;5020556;28;20561;-62
2022/07/19 08:13:42;;;;;;;4.43;3.47;;;34.80;99.90;;;;;;5021163;28;20463;-62
2022/07/19 08:16:09;;;;;;;5.30;3.80;;;35.20;99.90;;;;;;5021061;28;20459;-62
2022/07/19 08:18:38;;;;;;;5.57;3.80;;;35.50;99.90;;;;;;5020715;28;20442;-62
2022/07/19 08:21:06;;;;;;;9.97;4.37;;;35.70;99.90;;;;;;5020447;28;20466;-62
2022/07/19 08:23:36;;;;;;;3.80;3.20;;;35.40;99.90;;;;;;5019377;28;20528;-62
2022/07/19 08:26:04;;;;;;;3.80;3.20;;;35.70;99.90;;;;;;5020749;28;20467;-62
2022/07/19 08:28:34;;;;;;;5.63;3.70;;;35.60;99.90;;;;;;5015804;28;20534;-62
2022/07/19 08:31:03;;;;;;;6.10;3.80;;;35.40;99.90;;;;;;5020330;28;20958;-61
2022/07/19 08:33:31;;;;;;;3.40;3.10;;;35.40;99.90;;;;;;5020247;28;20463;-62
2022/07/19 08:35:58;;;;;;;3.63;3.33;;;35.20;99.90;;;;;;5020582;28;20727;-61
2022/07/19 08:38:26;;;;;;;6.80;4.40;;;35.40;99.90;;;;;;5020231;28;20445;-62
2022/07/19 08:40:55;;;;;;;4.50;3.90;;;35.20;99.90;;;;;;5019235;28;20498;-59
2022/07/19 08:43:23;;;;;;;4.17;3.43;;;35.50;99.90;;;;;;5019794;28;20438;-62
2022/07/19 08:45:50;;;;;;;4.93;3.93;;;35.70;99.90;;;;;;5019558;28;20459;-61
2022/07/19 08:48:20;;;;;;;7.03;3.23;;;36.00;99.90;;;;;;5019820;28;20558;-61
2022/07/19 08:50:49;;;;;;;3.90;3.47;;;36.00;99.90;;;;;;5018734;28;20489;-62
2022/07/19 08:53:28;;;;;;;5.23;3.83;;;36.10;99.90;;;;;;5020031;28;20505;-62
2022/07/19 08:55:58;;;;;;;13.23;4.53;;;36.30;99.90;;;;;;5017839;28;20740;-61
2022/07/19 08:58:24;;;;;;;4.60;4.00;;;36.10;99.90;;;;;;5018909;28;20491;-61
2022/07/19 09:00:54;;;;;;;5.37;4.50;;;36.20;99.90;;;;;;5019739;28;20534;-61
2022/07/19 09:03:25;;;;;;;3.77;3.47;;;36.50;99.90;;;;;;5019766;28;20562;-61
2022/07/19 09:06:04;;;;;;;3.23;3.00;;;36.80;99.90;;;;;;5018537;28;20470;-62
2022/07/19 09:08:33;;;;;;;4.13;3.83;;;36.40;99.90;;;;;;5017734;28;20959;-61
2022/07/19 09:13:54;;;;;;;8.03;3.60;;;36.70;99.90;;;;;;5008373;28;20423;-63
2022/07/19 09:16:22;;;;;;;5.50;3.67;;;37.00;99.90;;;;;;5018657;28;20522;-61
2022/07/19 09:19:04;;;;;;;6.00;2.97;;;36.80;99.90;;;;;;5017835;28;20601;-59
2022/07/19 09:21:34;;;;;;;4.60;3.43;;;36.80;99.90;;;;;;5018293;28;20491;-62
2022/07/19 09:24:04;;;;;;;4.10;3.70;;;36.70;99.90;;;;;;5019354;28;20489;-61
2022/07/19 09:26:34;;;;;;;4.30;3.90;;;37.10;99.90;;;;;;5018608;28;20562;-61
2022/07/19 09:29:19;;;;;;;4.90;4.50;;;37.10;99.90;;;;;;5016547;28;20475;-61
2022/07/19 09:32:00;;;;;;;6.57;4.57;;;37.10;99.90;;;;;;5018527;28;20442;-61
2022/07/19 09:34:36;;;;;;;5.33;3.50;;;37.30;99.90;;;;;;5017737;28;20454;-61
2022/07/19 09:37:28;;;;;;;5.20;3.70;;;37.60;99.90;;;;;;5018896;28;20523;-62
2022/07/19 09:39:57;;;;;;;4.50;3.37;;;38.10;99.90;;;;;;4997936;28;20471;-62
2022/07/19 09:42:34;;;;;;;5.40;3.67;;;38.40;99.90;;;;;;5018187;28;20495;-62
2022/07/19 09:45:08;;;;;;;5.73;3.83;;;38.40;99.90;;;;;;5018165;28;20444;-62
2022/07/19 09:47:37;;;;;;;5.60;3.50;;;38.10;99.90;;;;;;5017663;28;20466;-63
2022/07/19 09:50:10;;;;;;;5.80;3.80;;;38.00;99.90;;;;;;5017567;28;20513;-62
2022/07/19 09:52:38;;;;;;;5.97;3.80;;;38.00;99.90;;;;;;5018010;28;20528;-62
2022/07/19 09:55:13;;;;;;;4.03;3.53;;;38.20;99.90;;;;;;5017893;28;20438;-63
2022/07/19 09:57:44;;;;;;;6.37;3.70;;;38.00;99.90;;;;;;5018094;28;20755;-62
2022/07/19 10:00:14;;;;;;;4.40;3.80;;;38.30;99.90;;;;;;5018022;28;20446;-61
2022/07/19 10:02:46;;;;;;;7.73;4.00;;;38.50;99.90;;;;;;5017898;28;20538;-61
2022/07/19 10:05:17;;;;;;;4.33;3.90;;;38.70;99.90;;;;;;5017400;28;20546;-61
2022/07/19 10:07:45;;;;;;;3.70;3.40;;;38.40;99.90;;;;;;5017988;28;20208;-60
2022/07/19 10:10:16;;;;;;;7.50;3.90;;;38.90;99.90;;;;;;5017641;28;20215;-63
2022/07/19 10:12:50;;;;;;;3.63;3.33;;;39.40;99.90;;;;;;5018480;28;20208;-61
2022/07/19 10:15:18;;;;;;;4.40;3.17;;;39.50;99.90;;;;;;5018654;28;20533;-58
2022/07/19 10:18:16;;;;;;;3.50;3.00;;;39.70;99.90;;;;;;5114507;27;20610;-53
2022/07/19 10:20:48;;;;;;;6.15;3.80;;;39.60;99.90;;;;;;5115000;28;20233;-60
2022/07/19 10:23:31;;;;;;;4.15;3.85;;;39.60;99.90;;;;;;5115276;28;20205;-61
2022/07/19 10:25:58;;;;;;;4.55;3.88;;;39.70;99.90;;;;;;5115027;28;20205;-59
2022/07/19 10:28:32;;;;;;;4.57;4.18;;;39.80;99.90;;;;;;5114449;28;20251;-60
2022/07/19 10:31:03;;;;;;;3.97;3.60;;;39.70;99.90;;;;;;5097822;28;20202;-60
2022/07/19 10:33:36;;;;;;;5.43;3.95;;;39.30;99.90;;;;;;5094270;28;20210;-60
2022/07/19 10:36:38;;;;;;;4.53;3.20;;;39.30;99.90;;;;;;5094501;28;20230;-60
2022/07/19 10:39:26;;;;;;;5.15;3.88;;;39.50;99.90;;;;;;5091045;28;20206;-60
2022/07/19 10:42:23;;;;;;;5.28;4.20;;;40.00;99.90;;;;;;5093431;28;20210;-57
2022/07/19 10:45:15;;;;;;;4.50;3.55;;;40.50;99.90;;;;;;5050794;28;20211;-60
2022/07/19 10:48:13;;;;;;;3.85;3.45;;;40.50;99.90;;;;;;5060922;28;20288;-61
2022/07/19 10:51:11;;;;;;;6.07;3.60;;;40.60;99.90;;;;;;5070030;28;20206;-58
2022/07/19 10:54:05;;;;;;;5.25;3.25;;;40.10;99.90;;;;;;5091097;28;20224;-61
2022/07/19 10:56:38;;;;;;;3.40;3.10;;;39.80;99.90;;;;;;5087703;28;20672;-59
2022/07/19 10:59:09;;;;;;;3.28;2.97;;;39.70;99.90;;;;;;5089482;28;20533;-59
2022/07/19 11:01:40;;;;;;;4.07;3.42;;;39.30;99.90;;;;;;5078645;28;20275;-60
2022/07/19 11:04:36;;;;;;;4.00;3.20;;;39.10;99.90;;;;;;5089933;28;20202;-60
2022/07/19 11:07:20;;;;;;;3.75;3.45;;;39.40;99.90;;;;;;5085663;28;20468;-62
2022/07/19 11:09:53;;;;;;;3.57;3.27;;;39.30;99.90;;;;;;5090443;28;20206;-61
2022/07/19 11:12:29;;;;;;;3.72;3.42;;;39.00;99.90;;;;;;5092306;28;20232;-58
2022/07/19 11:14:58;;;;;;;4.40;3.42;;;38.60;99.90;;;;;;5077645;28;20497;-59
2022/07/19 11:17:27;;;;;;;3.08;2.88;;;38.90;99.90;;;;;;5072141;28;20927;-60
2022/07/19 11:19:59;;;;;;;5.13;3.80;;;39.60;99.90;;;;;;5073010;28;20210;-61
2022/07/19 11:22:40;;;;;;;8.15;4.40;;;40.10;99.90;;;;;;5072358;28;20213;-62
2022/07/19 11:25:10;;;;;;;3.80;3.20;;;40.20;99.90;;;;;;5072809;28;20210;-61
2022/07/19 11:27:43;;;;;;;3.95;3.63;;;40.20;99.90;;;;;;5068153;28;20210;-60
2022/07/19 11:30:14;;;;;;;4.40;3.75;;;40.30;99.90;;;;;;5060094;28;20292;-59
2022/07/19 11:32:45;;;;;;;4.53;3.63;;;40.90;99.90;;;;;;5060034;28;20268;-59
2022/07/19 11:35:16;;;;;;;4.55;3.75;;;40.70;99.90;;;;;;5058917;28;20579;-60
2022/07/19 11:37:53;;;;;;;4.07;3.78;;;41.10;99.90;;;;;;5059313;28;20685;-60
2022/07/19 11:40:22;;;;;;;4.60;3.85;;;41.70;99.90;;;;;;5060182;28;20297;-60
2022/07/19 11:42:53;;;;;;;4.53;4.13;;;41.40;99.90;;;;;;5059269;28;20613;-60
2022/07/19 11:45:26;;;;;;;5.97;3.72;;;41.60;99.90;;;;;;5058977;28;20207;-60
2022/07/19 11:47:57;;;;;;;8.43;4.03;;;41.80;99.90;;;;;;5058856;28;20615;-60
2022/07/19 11:50:26;;;;;;;4.80;4.40;;;41.50;99.90;;;;;;5059361;28;20207;-62
2022/07/19 11:53:01;;;;;;;4.40;4.00;;;40.70;99.90;;;;;;5059152;28;20298;-58
2022/07/19 11:55:35;;;;;;;4.40;3.28;;;40.40;99.90;;;;;;5059175;28;20294;-61
2022/07/19 11:58:09;;;;;;;4.57;4.18;;;41.10;99.90;;;;;;5059149;28;20237;-61
2022/07/19 12:00:37;;;;;;;4.90;4.47;;;41.30;99.90;;;;;;5058546;28;20245;-62
2022/07/19 12:03:09;;;;;;;4.35;3.72;;;41.40;99.90;;;;;;5058861;28;20225;-61
2022/07/19 12:05:37;;;;;;;4.75;3.50;;;41.40;99.90;;;;;;5059450;28;20273;-61
2022/07/19 12:08:08;;;;;;;5.57;4.10;;;41.40;99.90;;;;;;5059263;28;20207;-61
2022/07/19 12:10:45;;;;;;;6.68;3.67;;;41.40;99.90;;;;;;5059494;28;20215;-61
2022/07/19 12:13:16;;;;;;;4.20;3.90;;;40.60;99.90;;;;;;5058533;28;20214;-60
2022/07/19 12:15:52;;;;;;;4.32;4.03;;;40.10;99.90;;;;;;5058244;28;20211;-60
2022/07/19 12:18:26;;;;;;;3.80;3.50;;;40.40;99.90;;;;;;5059335;28;20317;-61
2022/07/19 12:21:20;;;;;;;4.57;4.05;;;40.70;99.90;;;;;;5077690;28;20213;-62
2022/07/19 12:24:13;;;;;;;7.18;3.97;;;40.70;99.90;;;;;;5077355;28;20260;-61
2022/07/19 12:26:58;;;;;;;4.35;3.67;;;40.60;99.90;;;;;;5077741;28;20213;-61
2022/07/19 12:29:27;;;;;;;4.15;3.83;;;40.80;99.90;;;;;;5077935;28;20217;-62
2022/07/19 12:31:57;;;;;;;7.88;3.55;;;41.20;99.90;;;;;;5078464;28;20664;-61
2022/07/19 12:34:25;;;;;;;5.28;4.30;;;41.40;99.90;;;;;;5078206;28;20256;-61
2022/07/19 12:36:52;;;;;;;4.10;3.80;;;41.60;99.90;;;;;;5074528;28;20218;-62
2022/07/19 12:39:27;;;;;;;4.97;4.03;;;41.90;99.90;;;;;;5076035;28;20567;-58
2022/07/19 12:42:09;;;;;;;7.22;3.85;;;41.10;99.90;;;;;;5075814;28;20212;-61
2022/07/19 12:44:40;;;;;;;4.00;3.70;;;40.90;99.90;;;;;;5076745;28;20550;-61
2022/07/19 12:47:10;;;;;;;4.88;4.10;;;41.00;99.90;;;;;;5077572;28;20209;-60
2022/07/19 12:49:49;;;;;;;4.72;4.25;;;41.00;99.90;;;;;;5077873;28;20207;-59
2022/07/19 12:52:16;;;;;;;3.17;2.92;;;41.10;99.90;;;;;;5078665;28;20217;-61
2022/07/19 12:54:44;;;;;;;4.93;3.35;;;41.60;99.90;;;;;;5078365;28;20503;-61
2022/07/19 12:57:20;;;;;;;4.78;4.43;;;42.10;99.90;;;;;;5077916;28;20647;-62
2022/07/19 12:59:48;;;;;;;4.32;3.92;;;42.40;99.90;;;;;;5078568;28;20256;-61
2022/07/19 13:02:17;;;;;;;4.95;4.50;;;42.10;99.90;;;;;;5078227;28;20309;-61
2022/07/19 13:04:48;;;;;;;4.18;3.78;;;41.10;99.90;;;;;;5077697;28;20212;-61
2022/07/19 13:07:20;;;;;;;5.10;4.60;;;41.50;99.90;;;;;;5078148;28;20229;-58